RRR4253 LROP-EPGD
Flight info
| Callsign | RRR4253 |
|---|---|
| Flight time | 2h 9m |
| Altitude | 24000 |
| Route | SOKRU DCT KEZAL DCT LHBP DCT LITKU Y301 KALIF DCT BABKO DCT POLON N133 GRUDA Z95 OSLOG |
| Aircraft | A400/H-SDE2E3FGHIJ4J5M1RWXY/LB1D1 |
Departure
| Time | 2026-05-07 09:22 |
|---|---|
| Airport | Bucharest Henri Coandă International Airport (LROP) |
Arrival
| Time | 2026-05-07 11:31 |
|---|---|
| Airport | Gdańsk Lech Wałęsa Airport (EPGD) |
| Time | Latitude | Longitude | Altitude | Speed | Heading |
|---|---|---|---|---|---|
| 2026-05-07 08:58 | 44.56997 | 26.10488 | 327 ft | 0 kts | 172° |
| 2026-05-07 09:14 | 44.57006 | 26.10487 | 325 ft | 4 kts | 175° |
| 2026-05-07 09:14 | 44.57033 | 26.10486 | 325 ft | 4 kts | 188° |
| 2026-05-07 09:14 | 44.57057 | 26.10496 | 325 ft | 4 kts | 219° |
| 2026-05-07 09:14 | 44.57068 | 26.10519 | 325 ft | 1 kts | 268° |
| 2026-05-07 09:15 | 44.57068 | 26.10525 | 325 ft | 0 kts | 268° |
| 2026-05-07 09:17 | 44.57068 | 26.10513 | 325 ft | 4 kts | 268° |
| 2026-05-07 09:17 | 44.57065 | 26.10443 | 328 ft | 10 kts | 263° |
| 2026-05-07 09:18 | 44.57056 | 26.10327 | 329 ft | 14 kts | 263° |
| 2026-05-07 09:18 | 44.57045 | 26.10181 | 328 ft | 16 kts | 264° |
| 2026-05-07 09:18 | 44.57036 | 26.10071 | 326 ft | 18 kts | 263° |
| 2026-05-07 09:18 | 44.57021 | 26.09887 | 326 ft | 20 kts | 265° |
| 2026-05-07 09:19 | 44.57007 | 26.09692 | 328 ft | 20 kts | 264° |
| 2026-05-07 09:19 | 44.56987 | 26.09429 | 328 ft | 21 kts | 264° |
| 2026-05-07 09:19 | 44.56976 | 26.09292 | 326 ft | 21 kts | 264° |
| 2026-05-07 09:19 | 44.56961 | 26.09083 | 328 ft | 22 kts | 263° |
| 2026-05-07 09:20 | 44.56944 | 26.08867 | 329 ft | 23 kts | 263° |
| 2026-05-07 09:20 | 44.56927 | 26.08644 | 330 ft | 23 kts | 264° |
| 2026-05-07 09:20 | 44.56813 | 26.08563 | 329 ft | 20 kts | 175° |
| 2026-05-07 09:20 | 44.56676 | 26.08586 | 327 ft | 19 kts | 172° |
| 2026-05-07 09:21 | 44.56552 | 26.08623 | 328 ft | 16 kts | 143° |
| 2026-05-07 09:21 | 44.56550 | 26.08784 | 327 ft | 36 kts | 84° |
| 2026-05-07 09:21 | 44.56610 | 26.09622 | 329 ft | 135 kts | 84° |
| 2026-05-07 09:21 | 44.56707 | 26.11153 | 650 ft | 172 kts | 84° |
| 2026-05-07 09:22 | 44.56837 | 26.12843 | 1558 ft | 178 kts | 85° |
| 2026-05-07 09:22 | 44.56986 | 26.14703 | 2260 ft | 204 kts | 86° |
| 2026-05-07 09:22 | 44.57144 | 26.16757 | 3209 ft | 217 kts | 85° |
| 2026-05-07 09:22 | 44.57316 | 26.18942 | 4206 ft | 231 kts | 82° |
| 2026-05-07 09:23 | 44.57770 | 26.21163 | 5109 ft | 248 kts | 61° |
| 2026-05-07 09:23 | 44.58995 | 26.22940 | 5758 ft | 263 kts | 25° |
| 2026-05-07 09:23 | 44.60770 | 26.23447 | 6654 ft | 265 kts | 352° |
| 2026-05-07 09:23 | 44.62477 | 26.22572 | 7569 ft | 267 kts | 328° |
| 2026-05-07 09:24 | 44.64025 | 26.21082 | 8503 ft | 273 kts | 323° |
| 2026-05-07 09:24 | 44.65580 | 26.19450 | 9439 ft | 281 kts | 323° |
| 2026-05-07 09:24 | 44.67342 | 26.18194 | 10295 ft | 292 kts | 343° |
| 2026-05-07 09:24 | 44.69388 | 26.17669 | 10978 ft | 305 kts | 352° |
| 2026-05-07 09:25 | 44.71524 | 26.17353 | 11771 ft | 313 kts | 353° |
| 2026-05-07 09:25 | 44.73717 | 26.17040 | 12576 ft | 319 kts | 351° |
| 2026-05-07 09:25 | 44.75852 | 26.16206 | 13452 ft | 321 kts | 333° |
| 2026-05-07 09:25 | 44.77631 | 26.14341 | 14279 ft | 321 kts | 309° |
| 2026-05-07 09:26 | 44.78955 | 26.11808 | 14983 ft | 322 kts | 301° |
| 2026-05-07 09:26 | 44.80142 | 26.09115 | 15707 ft | 325 kts | 300° |
| 2026-05-07 09:26 | 44.81321 | 26.06375 | 16458 ft | 329 kts | 300° |
| 2026-05-07 09:26 | 44.82499 | 26.03648 | 17197 ft | 332 kts | 300° |
| 2026-05-07 09:27 | 44.83709 | 26.00864 | 17990 ft | 334 kts | 300° |
| 2026-05-07 09:27 | 44.84933 | 25.98060 | 18711 ft | 338 kts | 300° |
| 2026-05-07 09:27 | 44.87005 | 25.92142 | 20133 ft | 339 kts | 288° |
| 2026-05-07 09:28 | 44.87703 | 25.88962 | 20857 ft | 340 kts | 286° |
| 2026-05-07 09:28 | 44.88370 | 25.85754 | 21544 ft | 343 kts | 286° |
| 2026-05-07 09:28 | 44.89039 | 25.82516 | 22210 ft | 345 kts | 286° |
| 2026-05-07 09:28 | 44.89715 | 25.79260 | 22901 ft | 347 kts | 286° |
| 2026-05-07 09:29 | 44.90396 | 25.75989 | 23569 ft | 349 kts | 286° |
| 2026-05-07 09:29 | 44.91084 | 25.72689 | 23937 ft | 353 kts | 287° |
| 2026-05-07 09:29 | 44.91777 | 25.69359 | 24063 ft | 355 kts | 287° |
| 2026-05-07 09:29 | 44.92474 | 25.66016 | 24069 ft | 354 kts | 287° |
| 2026-05-07 09:30 | 44.93165 | 25.62693 | 24071 ft | 354 kts | 287° |
| 2026-05-07 09:30 | 44.93857 | 25.59360 | 24074 ft | 354 kts | 286° |
| 2026-05-07 09:30 | 44.94549 | 25.56023 | 24068 ft | 353 kts | 286° |
| 2026-05-07 09:30 | 44.95239 | 25.52690 | 24068 ft | 353 kts | 286° |
| 2026-05-07 09:31 | 44.95928 | 25.49355 | 24067 ft | 353 kts | 286° |
| 2026-05-07 09:31 | 44.96605 | 25.46074 | 24065 ft | 353 kts | 286° |
| 2026-05-07 09:31 | 44.97300 | 25.42702 | 24068 ft | 353 kts | 286° |
| 2026-05-07 09:31 | 44.97985 | 25.39374 | 24065 ft | 353 kts | 286° |
| 2026-05-07 09:32 | 44.98661 | 25.36089 | 24071 ft | 353 kts | 286° |
| 2026-05-07 09:32 | 44.99521 | 25.32841 | 24070 ft | 353 kts | 295° |
| 2026-05-07 09:32 | 45.00678 | 25.29774 | 24069 ft | 354 kts | 299° |
| 2026-05-07 09:32 | 45.01973 | 25.26817 | 24064 ft | 354 kts | 301° |
| 2026-05-07 09:33 | 45.03337 | 25.23910 | 24066 ft | 355 kts | 302° |
| 2026-05-07 09:33 | 45.04724 | 25.21020 | 24067 ft | 355 kts | 302° |
| 2026-05-07 09:33 | 45.06112 | 25.18126 | 24068 ft | 355 kts | 302° |
| 2026-05-07 09:33 | 45.07471 | 25.15258 | 24062 ft | 355 kts | 302° |
| 2026-05-07 09:34 | 45.08835 | 25.12345 | 24065 ft | 355 kts | 302° |
| 2026-05-07 09:34 | 45.10190 | 25.09422 | 24071 ft | 355 kts | 301° |
| 2026-05-07 09:34 | 45.11538 | 25.06495 | 24061 ft | 355 kts | 301° |
| 2026-05-07 09:34 | 45.12886 | 25.03556 | 24064 ft | 355 kts | 301° |
| 2026-05-07 09:35 | 45.14229 | 25.00623 | 24064 ft | 355 kts | 301° |
| 2026-05-07 09:35 | 45.15572 | 24.97685 | 24061 ft | 355 kts | 301° |
| 2026-05-07 09:35 | 45.16916 | 24.94743 | 24060 ft | 356 kts | 301° |
| 2026-05-07 09:35 | 45.18267 | 24.91785 | 24060 ft | 357 kts | 301° |
| 2026-05-07 09:36 | 45.19616 | 24.88829 | 24066 ft | 357 kts | 301° |
| 2026-05-07 09:36 | 45.20967 | 24.85868 | 24067 ft | 357 kts | 301° |
| 2026-05-07 09:36 | 45.22298 | 24.82947 | 24067 ft | 357 kts | 301° |
| 2026-05-07 09:36 | 45.23645 | 24.79986 | 24062 ft | 357 kts | 301° |
| 2026-05-07 09:37 | 45.24991 | 24.77027 | 24065 ft | 357 kts | 301° |
| 2026-05-07 09:37 | 45.26338 | 24.74061 | 24060 ft | 357 kts | 301° |
| 2026-05-07 09:37 | 45.27681 | 24.71101 | 24060 ft | 356 kts | 301° |
| 2026-05-07 09:37 | 45.29020 | 24.68147 | 24060 ft | 356 kts | 301° |
| 2026-05-07 09:38 | 45.30367 | 24.65172 | 24058 ft | 357 kts | 300° |
| 2026-05-07 09:38 | 45.31708 | 24.62207 | 24058 ft | 357 kts | 300° |
| 2026-05-07 09:38 | 45.33046 | 24.59246 | 24045 ft | 357 kts | 300° |
| 2026-05-07 09:38 | 45.34386 | 24.56276 | 24057 ft | 357 kts | 300° |
| 2026-05-07 09:39 | 45.35726 | 24.53303 | 24047 ft | 357 kts | 300° |
| 2026-05-07 09:39 | 45.37067 | 24.50327 | 24050 ft | 357 kts | 300° |
| 2026-05-07 09:39 | 45.38407 | 24.47349 | 24039 ft | 357 kts | 300° |
| 2026-05-07 09:39 | 45.39751 | 24.44357 | 24055 ft | 357 kts | 300° |
| 2026-05-07 09:40 | 45.41094 | 24.41367 | 24041 ft | 357 kts | 300° |
| 2026-05-07 09:40 | 45.42414 | 24.38424 | 24046 ft | 357 kts | 300° |
| 2026-05-07 09:40 | 45.43751 | 24.35439 | 24040 ft | 358 kts | 300° |
| 2026-05-07 09:40 | 45.45089 | 24.32451 | 24051 ft | 357 kts | 300° |
| 2026-05-07 09:41 | 45.46426 | 24.29460 | 24057 ft | 358 kts | 300° |
| 2026-05-07 09:41 | 45.47762 | 24.26470 | 24037 ft | 358 kts | 300° |
| 2026-05-07 09:41 | 45.49097 | 24.23473 | 24042 ft | 359 kts | 300° |
| 2026-05-07 09:41 | 45.50435 | 24.20470 | 24055 ft | 359 kts | 300° |
| 2026-05-07 09:42 | 45.51775 | 24.17463 | 24044 ft | 358 kts | 300° |
| 2026-05-07 09:42 | 45.53108 | 24.14468 | 24032 ft | 358 kts | 300° |
| 2026-05-07 09:42 | 45.54442 | 24.11466 | 24045 ft | 358 kts | 300° |
| 2026-05-07 09:42 | 45.55758 | 24.08501 | 24047 ft | 357 kts | 299° |
| 2026-05-07 09:43 | 45.57088 | 24.05500 | 24048 ft | 358 kts | 299° |
| 2026-05-07 09:43 | 45.58418 | 24.02496 | 24044 ft | 358 kts | 299° |
| 2026-05-07 09:43 | 45.59751 | 23.99483 | 24042 ft | 358 kts | 299° |
| 2026-05-07 09:43 | 45.61087 | 23.96461 | 24044 ft | 358 kts | 299° |
| 2026-05-07 09:44 | 45.62413 | 23.93456 | 24046 ft | 358 kts | 299° |
| 2026-05-07 09:44 | 45.63747 | 23.90432 | 24044 ft | 358 kts | 299° |
| 2026-05-07 09:44 | 45.65076 | 23.87414 | 24043 ft | 359 kts | 299° |
| 2026-05-07 09:44 | 45.66404 | 23.84395 | 24045 ft | 359 kts | 299° |
| 2026-05-07 09:45 | 45.67716 | 23.81410 | 24051 ft | 359 kts | 299° |
| 2026-05-07 09:45 | 45.69041 | 23.78390 | 24041 ft | 359 kts | 299° |
| 2026-05-07 09:45 | 45.70372 | 23.75356 | 24032 ft | 359 kts | 299° |
| 2026-05-07 09:45 | 45.71699 | 23.72327 | 24035 ft | 359 kts | 299° |
| 2026-05-07 09:46 | 45.73027 | 23.69293 | 24033 ft | 359 kts | 299° |
| 2026-05-07 09:46 | 45.74354 | 23.66258 | 24035 ft | 359 kts | 299° |
| 2026-05-07 09:46 | 45.75679 | 23.63225 | 24036 ft | 359 kts | 299° |
| 2026-05-07 09:46 | 45.77002 | 23.60192 | 24039 ft | 359 kts | 299° |
| 2026-05-07 09:47 | 45.78325 | 23.57156 | 24040 ft | 359 kts | 299° |
| 2026-05-07 09:47 | 45.79644 | 23.54127 | 24042 ft | 359 kts | 298° |
| 2026-05-07 09:47 | 45.80964 | 23.51091 | 24041 ft | 359 kts | 299° |
| 2026-05-07 09:47 | 45.82284 | 23.48051 | 24041 ft | 358 kts | 299° |
| 2026-05-07 09:48 | 45.83602 | 23.45014 | 24051 ft | 359 kts | 298° |
| 2026-05-07 09:48 | 45.84920 | 23.41971 | 24045 ft | 360 kts | 298° |
| 2026-05-07 09:48 | 45.86224 | 23.38959 | 24032 ft | 360 kts | 298° |
| 2026-05-07 09:48 | 45.87546 | 23.35902 | 24032 ft | 360 kts | 298° |
| 2026-05-07 09:49 | 45.88865 | 23.32848 | 24031 ft | 360 kts | 298° |
| 2026-05-07 09:49 | 45.90187 | 23.29787 | 24032 ft | 360 kts | 298° |
| 2026-05-07 09:49 | 45.91507 | 23.26724 | 24032 ft | 360 kts | 298° |
| 2026-05-07 09:49 | 45.92825 | 23.23664 | 24031 ft | 360 kts | 298° |
| 2026-05-07 09:50 | 45.94141 | 23.20603 | 24037 ft | 360 kts | 298° |
| 2026-05-07 09:50 | 45.95457 | 23.17541 | 24036 ft | 360 kts | 298° |
| 2026-05-07 09:50 | 45.96772 | 23.14476 | 24036 ft | 360 kts | 298° |
| 2026-05-07 09:50 | 45.98088 | 23.11408 | 24036 ft | 360 kts | 298° |
| 2026-05-07 09:51 | 45.99404 | 23.08333 | 24034 ft | 361 kts | 298° |
| 2026-05-07 09:51 | 46.00718 | 23.05261 | 24039 ft | 360 kts | 298° |
| 2026-05-07 09:51 | 46.02015 | 23.02226 | 24039 ft | 361 kts | 298° |
| 2026-05-07 09:51 | 46.03333 | 22.99139 | 24037 ft | 361 kts | 298° |
| 2026-05-07 09:52 | 46.04645 | 22.96062 | 24039 ft | 361 kts | 298° |
| 2026-05-07 09:52 | 46.05958 | 22.92977 | 24045 ft | 361 kts | 298° |
| 2026-05-07 09:52 | 46.07269 | 22.89897 | 24045 ft | 361 kts | 298° |
| 2026-05-07 09:52 | 46.08577 | 22.86816 | 24045 ft | 361 kts | 298° |
| 2026-05-07 09:53 | 46.09887 | 22.83730 | 24040 ft | 361 kts | 298° |
| 2026-05-07 09:53 | 46.11182 | 22.80676 | 24051 ft | 361 kts | 298° |
| 2026-05-07 09:53 | 46.12493 | 22.77583 | 24047 ft | 361 kts | 298° |
| 2026-05-07 09:53 | 46.13802 | 22.74489 | 24047 ft | 361 kts | 298° |
| 2026-05-07 09:54 | 46.15110 | 22.71392 | 24042 ft | 361 kts | 298° |
| 2026-05-07 09:54 | 46.16415 | 22.68301 | 24050 ft | 361 kts | 298° |
| 2026-05-07 09:54 | 46.17719 | 22.65209 | 24048 ft | 361 kts | 298° |
| 2026-05-07 09:54 | 46.19023 | 22.62114 | 24047 ft | 361 kts | 298° |
| 2026-05-07 09:55 | 46.20329 | 22.59009 | 24051 ft | 361 kts | 298° |
| 2026-05-07 09:55 | 46.21631 | 22.55909 | 24046 ft | 361 kts | 298° |
| 2026-05-07 09:55 | 46.22935 | 22.52802 | 24047 ft | 361 kts | 297° |
| 2026-05-07 09:55 | 46.24219 | 22.49741 | 24053 ft | 361 kts | 297° |
| 2026-05-07 09:56 | 46.25518 | 22.46637 | 24047 ft | 361 kts | 297° |
| 2026-05-07 09:56 | 46.26819 | 22.43527 | 24049 ft | 361 kts | 297° |
| 2026-05-07 09:56 | 46.28118 | 22.40419 | 24049 ft | 361 kts | 297° |
| 2026-05-07 09:56 | 46.29418 | 22.37306 | 24048 ft | 362 kts | 297° |
| 2026-05-07 09:57 | 46.30718 | 22.34188 | 24047 ft | 362 kts | 297° |
| 2026-05-07 09:57 | 46.32016 | 22.31071 | 24048 ft | 362 kts | 297° |
| 2026-05-07 09:57 | 46.33313 | 22.27955 | 24046 ft | 362 kts | 297° |
| 2026-05-07 09:57 | 46.34609 | 22.24835 | 24048 ft | 362 kts | 297° |
| 2026-05-07 09:58 | 46.35907 | 22.21709 | 24048 ft | 362 kts | 297° |
| 2026-05-07 09:58 | 46.37202 | 22.18585 | 24055 ft | 362 kts | 297° |
| 2026-05-07 09:58 | 46.38500 | 22.15450 | 24043 ft | 362 kts | 297° |
| 2026-05-07 09:58 | 46.39795 | 22.12320 | 24040 ft | 362 kts | 297° |
| 2026-05-07 09:59 | 46.41090 | 22.09185 | 24043 ft | 363 kts | 297° |
| 2026-05-07 09:59 | 46.42369 | 22.06086 | 24044 ft | 363 kts | 297° |
| 2026-05-07 09:59 | 46.43664 | 22.02947 | 24043 ft | 363 kts | 297° |
| 2026-05-07 09:59 | 46.44955 | 21.99810 | 24041 ft | 363 kts | 297° |
| 2026-05-07 10:00 | 46.46248 | 21.96668 | 24048 ft | 362 kts | 297° |
| 2026-05-07 10:00 | 46.47539 | 21.93527 | 24046 ft | 362 kts | 297° |
| 2026-05-07 10:00 | 46.48829 | 21.90383 | 24042 ft | 362 kts | 297° |
| 2026-05-07 10:00 | 46.50119 | 21.87236 | 24041 ft | 362 kts | 297° |
| 2026-05-07 10:01 | 46.51407 | 21.84089 | 24043 ft | 362 kts | 297° |
| 2026-05-07 10:01 | 46.52696 | 21.80938 | 24040 ft | 362 kts | 297° |
| 2026-05-07 10:01 | 46.53985 | 21.77784 | 24037 ft | 362 kts | 297° |
| 2026-05-07 10:01 | 46.55269 | 21.74635 | 24033 ft | 363 kts | 297° |
| 2026-05-07 10:02 | 46.56541 | 21.71516 | 24030 ft | 363 kts | 297° |
| 2026-05-07 10:02 | 46.57833 | 21.68340 | 24032 ft | 363 kts | 297° |
| 2026-05-07 10:02 | 46.59121 | 21.65173 | 24028 ft | 364 kts | 297° |
| 2026-05-07 10:02 | 46.60408 | 21.62006 | 24028 ft | 363 kts | 297° |
| 2026-05-07 10:03 | 46.61690 | 21.58846 | 24033 ft | 364 kts | 297° |
| 2026-05-07 10:03 | 46.62974 | 21.55677 | 24031 ft | 363 kts | 297° |
| 2026-05-07 10:03 | 46.64260 | 21.52500 | 24032 ft | 363 kts | 297° |
| 2026-05-07 10:03 | 46.65539 | 21.49337 | 24025 ft | 363 kts | 297° |
| 2026-05-07 10:04 | 46.66818 | 21.46170 | 24026 ft | 363 kts | 297° |
| 2026-05-07 10:04 | 46.68096 | 21.43002 | 24025 ft | 363 kts | 296° |
| 2026-05-07 10:04 | 46.69379 | 21.39818 | 24023 ft | 363 kts | 296° |
| 2026-05-07 10:04 | 46.70641 | 21.36681 | 24023 ft | 363 kts | 296° |
| 2026-05-07 10:05 | 46.71913 | 21.33516 | 24020 ft | 363 kts | 296° |
| 2026-05-07 10:05 | 46.73187 | 21.30343 | 24021 ft | 363 kts | 296° |
| 2026-05-07 10:05 | 46.74465 | 21.27157 | 24020 ft | 363 kts | 296° |
| 2026-05-07 10:05 | 46.75740 | 21.23975 | 24020 ft | 363 kts | 296° |
| 2026-05-07 10:06 | 46.77017 | 21.20782 | 24020 ft | 363 kts | 296° |
| 2026-05-07 10:06 | 46.78274 | 21.17638 | 24014 ft | 363 kts | 296° |
| 2026-05-07 10:06 | 46.79544 | 21.14454 | 24025 ft | 364 kts | 296° |
| 2026-05-07 10:06 | 46.80821 | 21.11253 | 24010 ft | 364 kts | 296° |
| 2026-05-07 10:07 | 46.82091 | 21.08062 | 24004 ft | 364 kts | 296° |
| 2026-05-07 10:07 | 46.83363 | 21.04866 | 24021 ft | 364 kts | 296° |
| 2026-05-07 10:07 | 46.84637 | 21.01659 | 24009 ft | 364 kts | 296° |
| 2026-05-07 10:07 | 46.85906 | 20.98462 | 24003 ft | 364 kts | 296° |
| 2026-05-07 10:08 | 46.86747 | 20.96339 | 24002 ft | 364 kts | 296° |
| 2026-05-07 10:08 | 46.88010 | 20.93153 | 23984 ft | 362 kts | 296° |
| 2026-05-07 10:08 | 46.89662 | 20.88985 | 23559 ft | 351 kts | 296° |
| 2026-05-07 10:08 | 46.90483 | 20.86912 | 23257 ft | 346 kts | 296° |
| 2026-05-07 10:09 | 46.91675 | 20.83894 | 22599 ft | 347 kts | 296° |
| 2026-05-07 10:09 | 46.92873 | 20.80853 | 22102 ft | 343 kts | 296° |
| 2026-05-07 10:09 | 46.94058 | 20.77844 | 21605 ft | 340 kts | 296° |
| 2026-05-07 10:09 | 46.95235 | 20.74851 | 21070 ft | 338 kts | 296° |
| 2026-05-07 10:10 | 46.96399 | 20.71886 | 20562 ft | 336 kts | 296° |
| 2026-05-07 10:10 | 46.97564 | 20.68917 | 20054 ft | 334 kts | 296° |
| 2026-05-07 10:10 | 46.98715 | 20.65980 | 19566 ft | 332 kts | 296° |
| 2026-05-07 10:10 | 46.99862 | 20.63050 | 19063 ft | 330 kts | 296° |
| 2026-05-07 10:11 | 47.01000 | 20.60140 | 18596 ft | 328 kts | 296° |
| 2026-05-07 10:11 | 47.02119 | 20.57277 | 18105 ft | 327 kts | 296° |
| 2026-05-07 10:11 | 47.03245 | 20.54394 | 17586 ft | 325 kts | 296° |
| 2026-05-07 10:11 | 47.04361 | 20.51533 | 17103 ft | 322 kts | 296° |
| 2026-05-07 10:12 | 47.05469 | 20.48690 | 16617 ft | 319 kts | 296° |
| 2026-05-07 10:12 | 47.06565 | 20.45874 | 16139 ft | 316 kts | 296° |
| 2026-05-07 10:12 | 47.07653 | 20.43075 | 15681 ft | 314 kts | 296° |
| 2026-05-07 10:12 | 47.08733 | 20.40295 | 15213 ft | 312 kts | 296° |
| 2026-05-07 10:13 | 47.09800 | 20.37544 | 14753 ft | 310 kts | 296° |
| 2026-05-07 10:13 | 47.10857 | 20.34804 | 14327 ft | 307 kts | 296° |
| 2026-05-07 10:13 | 47.11869 | 20.32084 | 13841 ft | 307 kts | 295° |
| 2026-05-07 10:13 | 47.12861 | 20.29308 | 13333 ft | 305 kts | 294° |
| 2026-05-07 10:14 | 47.13813 | 20.26541 | 12901 ft | 301 kts | 293° |
| 2026-05-07 10:14 | 47.14721 | 20.23794 | 12476 ft | 298 kts | 292° |
| 2026-05-07 10:14 | 47.15590 | 20.21047 | 12038 ft | 295 kts | 291° |
| 2026-05-07 10:14 | 47.16418 | 20.18305 | 11617 ft | 292 kts | 290° |
| 2026-05-07 10:15 | 47.17211 | 20.15547 | 11189 ft | 290 kts | 289° |
| 2026-05-07 10:15 | 47.17949 | 20.12842 | 10768 ft | 287 kts | 288° |
| 2026-05-07 10:15 | 47.18666 | 20.10116 | 10457 ft | 284 kts | 287° |
| 2026-05-07 10:15 | 47.19371 | 20.07400 | 10217 ft | 284 kts | 287° |
| 2026-05-07 10:16 | 47.20066 | 20.04699 | 9761 ft | 282 kts | 287° |
| 2026-05-07 10:16 | 47.20756 | 20.02005 | 9216 ft | 282 kts | 287° |
| 2026-05-07 10:16 | 47.21441 | 19.99313 | 8744 ft | 279 kts | 287° |
| 2026-05-07 10:16 | 47.22119 | 19.96645 | 8473 ft | 280 kts | 287° |
| 2026-05-07 10:17 | 47.22810 | 19.93911 | 8825 ft | 291 kts | 287° |
| 2026-05-07 10:17 | 47.23526 | 19.91072 | 8998 ft | 296 kts | 287° |
| 2026-05-07 10:17 | 47.24229 | 19.88302 | 9000 ft | 284 kts | 287° |
| 2026-05-07 10:17 | 47.24914 | 19.85600 | 8998 ft | 279 kts | 287° |
| 2026-05-07 10:18 | 47.25587 | 19.82931 | 8995 ft | 278 kts | 287° |
| 2026-05-07 10:18 | 47.26257 | 19.80268 | 8997 ft | 277 kts | 286° |
| 2026-05-07 10:18 | 47.26923 | 19.77622 | 8990 ft | 276 kts | 286° |
| 2026-05-07 10:18 | 47.27588 | 19.74970 | 8987 ft | 275 kts | 286° |
| 2026-05-07 10:19 | 47.28244 | 19.72357 | 8992 ft | 274 kts | 286° |
| 2026-05-07 10:19 | 47.28898 | 19.69750 | 8581 ft | 271 kts | 286° |
| 2026-05-07 10:19 | 47.29550 | 19.67142 | 8133 ft | 271 kts | 287° |
| 2026-05-07 10:19 | 47.30201 | 19.64539 | 7977 ft | 270 kts | 286° |
| 2026-05-07 10:20 | 47.30846 | 19.61959 | 7569 ft | 267 kts | 287° |
| 2026-05-07 10:20 | 47.31487 | 19.59389 | 7175 ft | 265 kts | 287° |
| 2026-05-07 10:20 | 47.32126 | 19.56825 | 6729 ft | 267 kts | 287° |
| 2026-05-07 10:20 | 47.32765 | 19.54251 | 6180 ft | 270 kts | 287° |
| 2026-05-07 10:21 | 47.33417 | 19.51627 | 5538 ft | 274 kts | 287° |
| 2026-05-07 10:21 | 47.34075 | 19.48976 | 4925 ft | 276 kts | 287° |
| 2026-05-07 10:21 | 47.34731 | 19.46332 | 4350 ft | 269 kts | 288° |
| 2026-05-07 10:21 | 47.35346 | 19.43868 | 3783 ft | 242 kts | 287° |
| 2026-05-07 10:22 | 47.35895 | 19.41661 | 3071 ft | 223 kts | 288° |
| 2026-05-07 10:22 | 47.36425 | 19.39556 | 2155 ft | 215 kts | 290° |
| 2026-05-07 10:22 | 47.37162 | 19.37703 | 1548 ft | 205 kts | 305° |
| 2026-05-07 10:22 | 47.38065 | 19.36236 | 1427 ft | 180 kts | 308° |
| 2026-05-07 10:23 | 47.38851 | 19.34953 | 1435 ft | 159 kts | 305° |
| 2026-05-07 10:23 | 47.39591 | 19.33762 | 1301 ft | 158 kts | 308° |
| 2026-05-07 10:23 | 47.40328 | 19.32567 | 1095 ft | 158 kts | 308° |
| 2026-05-07 10:23 | 47.41069 | 19.31388 | 800 ft | 156 kts | 308° |
| 2026-05-07 10:24 | 47.41802 | 19.30189 | 623 ft | 157 kts | 308° |
| 2026-05-07 10:24 | 47.42534 | 19.29012 | 464 ft | 153 kts | 306° |
| 2026-05-07 10:24 | 47.43128 | 19.28025 | 471 ft | 113 kts | 313° |
| 2026-05-07 10:24 | 47.43831 | 19.26945 | 615 ft | 173 kts | 309° |
| 2026-05-07 10:25 | 47.44737 | 19.25540 | 954 ft | 202 kts | 310° |
| 2026-05-07 10:25 | 47.45874 | 19.24374 | 1872 ft | 201 kts | 339° |
| 2026-05-07 10:25 | 47.47252 | 19.24024 | 2943 ft | 203 kts | 348° |
| 2026-05-07 10:25 | 47.48711 | 19.23786 | 3645 ft | 222 kts | 350° |
| 2026-05-07 10:26 | 47.50310 | 19.23851 | 4166 ft | 238 kts | 5° |
| 2026-05-07 10:26 | 47.51961 | 19.24311 | 4353 ft | 240 kts | 10° |
| 2026-05-07 10:26 | 47.53533 | 19.24942 | 4205 ft | 230 kts | 13° |
| 2026-05-07 10:26 | 47.55034 | 19.25663 | 4020 ft | 227 kts | 16° |
| 2026-05-07 10:27 | 47.56628 | 19.26475 | 4045 ft | 256 kts | 16° |
| 2026-05-07 10:27 | 47.58411 | 19.27390 | 4528 ft | 283 kts | 16° |
| 2026-05-07 10:27 | 47.60268 | 19.28341 | 5485 ft | 285 kts | 17° |
| 2026-05-07 10:27 | 47.62143 | 19.29296 | 6421 ft | 288 kts | 17° |
| 2026-05-07 10:28 | 47.64062 | 19.30263 | 7214 ft | 294 kts | 17° |
| 2026-05-07 10:28 | 47.66015 | 19.31238 | 8085 ft | 298 kts | 17° |
| 2026-05-07 10:28 | 47.67979 | 19.32216 | 9046 ft | 298 kts | 17° |
| 2026-05-07 10:28 | 47.69962 | 19.33200 | 9920 ft | 303 kts | 17° |
| 2026-05-07 10:29 | 47.71981 | 19.34201 | 10692 ft | 307 kts | 17° |
| 2026-05-07 10:29 | 47.74027 | 19.35217 | 11411 ft | 315 kts | 17° |
| 2026-05-07 10:29 | 47.76153 | 19.36273 | 12038 ft | 325 kts | 17° |
| 2026-05-07 10:30 | 47.80522 | 19.38448 | 13463 ft | 336 kts | 17° |
| 2026-05-07 10:30 | 47.82763 | 19.39566 | 14156 ft | 341 kts | 18° |
| 2026-05-07 10:30 | 47.85020 | 19.40694 | 14849 ft | 344 kts | 17° |
| 2026-05-07 10:30 | 47.87295 | 19.41832 | 15559 ft | 347 kts | 17° |
| 2026-05-07 10:31 | 47.89596 | 19.42983 | 16249 ft | 351 kts | 17° |
| 2026-05-07 10:31 | 47.91923 | 19.44149 | 16967 ft | 353 kts | 17° |
| 2026-05-07 10:31 | 47.94232 | 19.45306 | 17720 ft | 356 kts | 17° |
| 2026-05-07 10:31 | 47.96591 | 19.46489 | 18410 ft | 359 kts | 17° |
| 2026-05-07 10:32 | 47.98974 | 19.47686 | 18997 ft | 364 kts | 17° |
| 2026-05-07 10:32 | 48.01391 | 19.48900 | 19565 ft | 368 kts | 17° |
| 2026-05-07 10:32 | 48.03834 | 19.50129 | 20104 ft | 373 kts | 17° |
| 2026-05-07 10:32 | 48.06319 | 19.51381 | 20666 ft | 377 kts | 18° |
| 2026-05-07 10:33 | 48.08817 | 19.52641 | 21228 ft | 381 kts | 18° |
| 2026-05-07 10:33 | 48.11349 | 19.53919 | 21738 ft | 387 kts | 17° |
| 2026-05-07 10:33 | 48.13928 | 19.55222 | 22197 ft | 394 kts | 17° |
| 2026-05-07 10:33 | 48.16505 | 19.56525 | 22779 ft | 397 kts | 17° |
| 2026-05-07 10:34 | 48.19124 | 19.57851 | 23347 ft | 399 kts | 18° |
| 2026-05-07 10:34 | 48.21790 | 19.59053 | 23781 ft | 400 kts | 10° |
| 2026-05-07 10:34 | 48.24560 | 19.59493 | 23944 ft | 401 kts | 360° |
| 2026-05-07 10:34 | 48.27350 | 19.59525 | 23964 ft | 401 kts | 356° |
| 2026-05-07 10:35 | 48.30140 | 19.59355 | 23967 ft | 402 kts | 353° |
| 2026-05-07 10:35 | 48.32991 | 19.59068 | 23960 ft | 419 kts | 352° |
| 2026-05-07 10:35 | 48.35942 | 19.58727 | 23959 ft | 432 kts | 352° |
| 2026-05-07 10:35 | 48.38971 | 19.58378 | 23961 ft | 437 kts | 353° |
| 2026-05-07 10:36 | 48.42006 | 19.58047 | 23960 ft | 438 kts | 353° |
| 2026-05-07 10:36 | 48.45051 | 19.57731 | 23965 ft | 439 kts | 353° |
| 2026-05-07 10:36 | 48.48106 | 19.57427 | 23965 ft | 439 kts | 353° |
| 2026-05-07 10:36 | 48.51162 | 19.57132 | 23968 ft | 439 kts | 353° |
| 2026-05-07 10:37 | 48.54201 | 19.56852 | 23965 ft | 438 kts | 353° |
| 2026-05-07 10:37 | 48.57248 | 19.56578 | 23968 ft | 437 kts | 353° |
| 2026-05-07 10:37 | 48.60257 | 19.56309 | 23968 ft | 437 kts | 353° |
| 2026-05-07 10:37 | 48.63286 | 19.56037 | 23970 ft | 437 kts | 353° |
| 2026-05-07 10:38 | 48.66330 | 19.55763 | 23967 ft | 437 kts | 353° |
| 2026-05-07 10:38 | 48.69363 | 19.55488 | 23969 ft | 437 kts | 353° |
| 2026-05-07 10:38 | 48.72410 | 19.55211 | 23968 ft | 437 kts | 353° |
| 2026-05-07 10:38 | 48.75444 | 19.54933 | 23963 ft | 437 kts | 353° |
| 2026-05-07 10:39 | 48.78478 | 19.54654 | 23973 ft | 436 kts | 353° |
| 2026-05-07 10:39 | 48.81516 | 19.54375 | 23970 ft | 438 kts | 353° |
| 2026-05-07 10:39 | 48.84529 | 19.54098 | 23963 ft | 439 kts | 353° |
| 2026-05-07 10:39 | 48.87576 | 19.53817 | 23964 ft | 439 kts | 353° |
| 2026-05-07 10:40 | 48.90636 | 19.53536 | 23963 ft | 439 kts | 353° |
| 2026-05-07 10:40 | 48.93696 | 19.53254 | 23957 ft | 440 kts | 353° |
| 2026-05-07 10:40 | 48.96754 | 19.52972 | 23963 ft | 440 kts | 353° |
| 2026-05-07 10:40 | 48.99813 | 19.52690 | 23958 ft | 439 kts | 353° |
| 2026-05-07 10:41 | 49.02869 | 19.52407 | 23958 ft | 439 kts | 353° |
| 2026-05-07 10:41 | 49.05918 | 19.52125 | 23957 ft | 439 kts | 353° |
| 2026-05-07 10:41 | 49.08970 | 19.51842 | 23959 ft | 439 kts | 353° |
| 2026-05-07 10:41 | 49.12016 | 19.51559 | 23955 ft | 439 kts | 353° |
| 2026-05-07 10:42 | 49.15058 | 19.51276 | 23955 ft | 439 kts | 353° |
| 2026-05-07 10:42 | 49.18068 | 19.50995 | 23952 ft | 439 kts | 353° |
| 2026-05-07 10:42 | 49.21117 | 19.50711 | 23953 ft | 439 kts | 353° |
| 2026-05-07 10:42 | 49.24164 | 19.50427 | 23951 ft | 439 kts | 353° |
| 2026-05-07 10:43 | 49.27211 | 19.50142 | 23951 ft | 439 kts | 353° |
| 2026-05-07 10:43 | 49.30267 | 19.49856 | 23952 ft | 440 kts | 353° |
| 2026-05-07 10:43 | 49.33325 | 19.49570 | 23947 ft | 440 kts | 353° |
| 2026-05-07 10:43 | 49.36388 | 19.49282 | 23943 ft | 441 kts | 353° |
| 2026-05-07 10:44 | 49.39456 | 19.48994 | 23947 ft | 442 kts | 353° |
| 2026-05-07 10:44 | 49.42525 | 19.48705 | 23939 ft | 442 kts | 353° |
| 2026-05-07 10:44 | 49.45596 | 19.48416 | 23938 ft | 442 kts | 353° |
| 2026-05-07 10:44 | 49.48665 | 19.48128 | 23950 ft | 442 kts | 353° |
| 2026-05-07 10:45 | 49.51742 | 19.47838 | 23939 ft | 442 kts | 353° |
| 2026-05-07 10:45 | 49.54814 | 19.47547 | 23937 ft | 442 kts | 353° |
| 2026-05-07 10:45 | 49.57888 | 19.47256 | 23935 ft | 442 kts | 353° |
| 2026-05-07 10:45 | 49.60965 | 19.47091 | 23937 ft | 444 kts | 358° |
| 2026-05-07 10:46 | 49.64056 | 19.47205 | 23948 ft | 445 kts | 358° |
| 2026-05-07 10:46 | 49.67148 | 19.47389 | 23933 ft | 445 kts | 360° |
| 2026-05-07 10:46 | 49.70241 | 19.47624 | 23940 ft | 445 kts | 0° |
| 2026-05-07 10:46 | 49.73335 | 19.47885 | 23934 ft | 446 kts | 0° |
| 2026-05-07 10:47 | 49.76390 | 19.48152 | 23939 ft | 446 kts | 0° |
| 2026-05-07 10:47 | 49.79492 | 19.48422 | 23931 ft | 446 kts | 0° |
| 2026-05-07 10:47 | 49.82594 | 19.48689 | 23932 ft | 446 kts | 1° |
| 2026-05-07 10:47 | 49.85697 | 19.48951 | 23932 ft | 445 kts | 0° |
| 2026-05-07 10:48 | 49.88789 | 19.49208 | 23927 ft | 445 kts | 0° |
| 2026-05-07 10:48 | 49.91890 | 19.49464 | 23932 ft | 446 kts | 1° |
| 2026-05-07 10:48 | 49.94993 | 19.49719 | 23931 ft | 446 kts | 0° |
| 2026-05-07 10:48 | 49.98051 | 19.49971 | 23921 ft | 446 kts | 0° |
| 2026-05-07 10:49 | 50.01143 | 19.50226 | 23922 ft | 446 kts | 0° |
| 2026-05-07 10:49 | 50.04250 | 19.50482 | 23927 ft | 446 kts | 0° |
| 2026-05-07 10:49 | 50.07346 | 19.50739 | 23918 ft | 446 kts | 0° |
| 2026-05-07 10:49 | 50.10446 | 19.50996 | 23917 ft | 446 kts | 0° |
| 2026-05-07 10:50 | 50.13566 | 19.51255 | 23920 ft | 450 kts | 0° |
| 2026-05-07 10:50 | 50.16710 | 19.51516 | 23923 ft | 452 kts | 0° |
| 2026-05-07 10:50 | 50.19860 | 19.51778 | 23919 ft | 452 kts | 0° |
| 2026-05-07 10:50 | 50.23004 | 19.52041 | 23918 ft | 452 kts | 0° |
| 2026-05-07 10:51 | 50.26149 | 19.52305 | 23916 ft | 452 kts | 0° |
| 2026-05-07 10:51 | 50.29256 | 19.52566 | 23918 ft | 452 kts | 0° |
| 2026-05-07 10:51 | 50.32400 | 19.52829 | 23919 ft | 452 kts | 0° |
| 2026-05-07 10:51 | 50.35537 | 19.53093 | 23923 ft | 452 kts | 0° |
| 2026-05-07 10:52 | 50.38688 | 19.53358 | 23922 ft | 453 kts | 0° |
| 2026-05-07 10:52 | 50.41834 | 19.53623 | 23922 ft | 453 kts | 0° |
| 2026-05-07 10:52 | 50.44980 | 19.53888 | 23925 ft | 453 kts | 0° |
| 2026-05-07 10:52 | 50.48134 | 19.54154 | 23923 ft | 453 kts | 0° |
| 2026-05-07 10:53 | 50.51279 | 19.54419 | 23920 ft | 453 kts | 0° |
| 2026-05-07 10:53 | 50.54426 | 19.54686 | 23923 ft | 453 kts | 0° |
| 2026-05-07 10:53 | 50.57581 | 19.54953 | 23919 ft | 453 kts | 0° |
| 2026-05-07 10:53 | 50.60693 | 19.55217 | 23917 ft | 453 kts | 0° |
| 2026-05-07 10:54 | 50.63848 | 19.55485 | 23915 ft | 453 kts | 0° |
| 2026-05-07 10:54 | 50.67003 | 19.55754 | 23917 ft | 453 kts | 0° |
| 2026-05-07 10:54 | 50.70151 | 19.56022 | 23916 ft | 453 kts | 0° |
| 2026-05-07 10:54 | 50.73308 | 19.56291 | 23919 ft | 453 kts | 0° |
| 2026-05-07 10:55 | 50.76427 | 19.56557 | 23918 ft | 453 kts | 0° |
| 2026-05-07 10:55 | 50.79575 | 19.56827 | 23940 ft | 454 kts | 360° |
| 2026-05-07 10:55 | 50.82733 | 19.57097 | 23915 ft | 455 kts | 359° |
| 2026-05-07 10:55 | 50.85905 | 19.57369 | 23921 ft | 455 kts | 359° |
| 2026-05-07 10:56 | 50.89079 | 19.57641 | 23929 ft | 455 kts | 359° |
| 2026-05-07 10:56 | 50.92241 | 19.57913 | 23922 ft | 455 kts | 359° |
| 2026-05-07 10:56 | 50.95376 | 19.58183 | 23925 ft | 455 kts | 359° |
| 2026-05-07 10:56 | 50.98538 | 19.58455 | 23919 ft | 455 kts | 359° |
| 2026-05-07 10:57 | 51.01701 | 19.58728 | 23923 ft | 455 kts | 359° |
| 2026-05-07 10:57 | 51.04872 | 19.59003 | 23927 ft | 455 kts | 359° |
| 2026-05-07 10:57 | 51.08026 | 19.59276 | 23925 ft | 455 kts | 359° |
| 2026-05-07 10:57 | 51.10122 | 19.59457 | 23928 ft | 455 kts | 359° |
| 2026-05-07 10:58 | 51.13283 | 19.59732 | 23926 ft | 455 kts | 359° |
| 2026-05-07 10:58 | 51.16439 | 19.60006 | 23929 ft | 454 kts | 359° |
| 2026-05-07 10:58 | 51.19601 | 19.60281 | 23933 ft | 454 kts | 359° |
| 2026-05-07 10:58 | 51.22755 | 19.60556 | 23926 ft | 454 kts | 359° |
| 2026-05-07 10:59 | 51.25909 | 19.60831 | 23944 ft | 454 kts | 359° |
| 2026-05-07 10:59 | 51.29071 | 19.61107 | 23928 ft | 454 kts | 359° |
| 2026-05-07 10:59 | 51.32188 | 19.61380 | 23945 ft | 454 kts | 359° |
| 2026-05-07 10:59 | 51.35342 | 19.61656 | 23932 ft | 454 kts | 359° |
| 2026-05-07 11:00 | 51.38491 | 19.61933 | 23943 ft | 452 kts | 359° |
| 2026-05-07 11:00 | 51.41639 | 19.62210 | 23944 ft | 452 kts | 359° |
| 2026-05-07 11:00 | 51.44781 | 19.62486 | 23933 ft | 452 kts | 359° |
| 2026-05-07 11:00 | 51.47921 | 19.62763 | 23946 ft | 452 kts | 359° |
| 2026-05-07 11:01 | 51.51059 | 19.63039 | 23941 ft | 452 kts | 359° |
| 2026-05-07 11:01 | 51.54194 | 19.63316 | 23946 ft | 451 kts | 359° |
| 2026-05-07 11:01 | 51.57328 | 19.63593 | 23942 ft | 451 kts | 359° |
| 2026-05-07 11:01 | 51.60470 | 19.63871 | 23949 ft | 451 kts | 360° |
| 2026-05-07 11:02 | 51.63594 | 19.64149 | 23940 ft | 449 kts | 360° |
| 2026-05-07 11:02 | 51.66719 | 19.64427 | 23941 ft | 448 kts | 360° |
| 2026-05-07 11:02 | 51.69832 | 19.64704 | 23940 ft | 448 kts | 360° |
| 2026-05-07 11:02 | 51.72947 | 19.64981 | 23940 ft | 448 kts | 360° |
| 2026-05-07 11:03 | 51.76019 | 19.65254 | 23941 ft | 448 kts | 360° |
| 2026-05-07 11:03 | 51.79126 | 19.65298 | 23938 ft | 443 kts | 350° |
| 2026-05-07 11:03 | 51.82143 | 19.64400 | 23944 ft | 440 kts | 343° |
| 2026-05-07 11:03 | 51.85108 | 19.63218 | 23943 ft | 438 kts | 340° |
| 2026-05-07 11:04 | 51.88041 | 19.61865 | 23942 ft | 437 kts | 339° |
| 2026-05-07 11:04 | 51.90947 | 19.60429 | 23944 ft | 437 kts | 338° |
| 2026-05-07 11:04 | 51.93847 | 19.58959 | 23944 ft | 437 kts | 338° |
| 2026-05-07 11:04 | 51.96746 | 19.57485 | 23946 ft | 437 kts | 338° |
| 2026-05-07 11:05 | 51.99655 | 19.56017 | 23948 ft | 437 kts | 338° |
| 2026-05-07 11:05 | 52.02560 | 19.54563 | 23952 ft | 437 kts | 338° |
| 2026-05-07 11:05 | 52.05434 | 19.53134 | 23954 ft | 437 kts | 338° |
| 2026-05-07 11:05 | 52.08337 | 19.51697 | 23955 ft | 437 kts | 338° |
| 2026-05-07 11:06 | 52.11247 | 19.50258 | 23959 ft | 437 kts | 338° |
| 2026-05-07 11:06 | 52.14157 | 19.48819 | 23955 ft | 437 kts | 339° |
| 2026-05-07 11:06 | 52.17065 | 19.47379 | 23955 ft | 437 kts | 339° |
| 2026-05-07 11:06 | 52.19987 | 19.45930 | 23955 ft | 437 kts | 338° |
| 2026-05-07 11:07 | 52.22896 | 19.44484 | 23955 ft | 437 kts | 338° |
| 2026-05-07 11:07 | 52.25802 | 19.43038 | 23955 ft | 437 kts | 338° |
| 2026-05-07 11:07 | 52.28709 | 19.41589 | 23955 ft | 437 kts | 338° |
| 2026-05-07 11:07 | 52.31622 | 19.40135 | 23956 ft | 437 kts | 338° |
| 2026-05-07 11:08 | 52.34528 | 19.38682 | 23954 ft | 437 kts | 338° |
| 2026-05-07 11:08 | 52.37435 | 19.37227 | 23960 ft | 437 kts | 338° |
| 2026-05-07 11:08 | 52.40335 | 19.35772 | 23966 ft | 437 kts | 338° |
| 2026-05-07 11:08 | 52.43241 | 19.34313 | 23961 ft | 437 kts | 339° |
| 2026-05-07 11:09 | 52.46113 | 19.32870 | 23957 ft | 437 kts | 338° |
| 2026-05-07 11:09 | 52.49018 | 19.31408 | 23958 ft | 437 kts | 338° |
| 2026-05-07 11:09 | 52.51915 | 19.29947 | 23958 ft | 437 kts | 338° |
| 2026-05-07 11:09 | 52.54829 | 19.28477 | 23963 ft | 437 kts | 338° |
| 2026-05-07 11:10 | 52.57739 | 19.27005 | 23962 ft | 438 kts | 338° |
| 2026-05-07 11:10 | 52.60653 | 19.25530 | 23956 ft | 438 kts | 338° |
| 2026-05-07 11:10 | 52.63575 | 19.24049 | 23959 ft | 438 kts | 338° |
| 2026-05-07 11:10 | 52.66493 | 19.22568 | 23963 ft | 438 kts | 338° |
| 2026-05-07 11:11 | 52.69403 | 19.21088 | 23962 ft | 438 kts | 338° |
| 2026-05-07 11:11 | 52.72320 | 19.19603 | 23964 ft | 438 kts | 338° |
| 2026-05-07 11:11 | 52.75235 | 19.18117 | 23963 ft | 438 kts | 338° |
| 2026-05-07 11:11 | 52.78142 | 19.16633 | 23963 ft | 438 kts | 338° |
| 2026-05-07 11:12 | 52.81060 | 19.15141 | 23963 ft | 438 kts | 338° |
| 2026-05-07 11:12 | 52.83972 | 19.13650 | 23963 ft | 438 kts | 338° |
| 2026-05-07 11:12 | 52.86849 | 19.12175 | 23964 ft | 438 kts | 338° |
| 2026-05-07 11:12 | 52.89766 | 19.10677 | 23966 ft | 438 kts | 338° |
| 2026-05-07 11:13 | 52.92684 | 19.09177 | 23964 ft | 438 kts | 338° |
| 2026-05-07 11:13 | 52.95600 | 19.07676 | 23972 ft | 438 kts | 338° |
| 2026-05-07 11:13 | 52.98512 | 19.06174 | 23971 ft | 438 kts | 338° |
| 2026-05-07 11:13 | 53.01425 | 19.04670 | 23966 ft | 438 kts | 338° |
| 2026-05-07 11:14 | 53.04338 | 19.03163 | 23969 ft | 438 kts | 338° |
| 2026-05-07 11:14 | 53.07217 | 19.01673 | 23968 ft | 438 kts | 338° |
| 2026-05-07 11:14 | 53.10130 | 19.00163 | 23969 ft | 438 kts | 338° |
| 2026-05-07 11:14 | 53.13042 | 18.98651 | 23968 ft | 438 kts | 338° |
| 2026-05-07 11:15 | 53.15961 | 18.97134 | 23969 ft | 438 kts | 338° |
| 2026-05-07 11:15 | 53.18874 | 18.95618 | 23971 ft | 438 kts | 338° |
| 2026-05-07 11:15 | 53.21786 | 18.94099 | 23971 ft | 438 kts | 338° |
| 2026-05-07 11:15 | 53.24699 | 18.92578 | 23979 ft | 438 kts | 338° |
| 2026-05-07 11:16 | 53.27621 | 18.91049 | 23976 ft | 438 kts | 338° |
| 2026-05-07 11:16 | 53.30531 | 18.89524 | 23974 ft | 438 kts | 338° |
| 2026-05-07 11:16 | 53.33438 | 18.87999 | 23974 ft | 438 kts | 338° |
| 2026-05-07 11:16 | 53.36347 | 18.86470 | 23974 ft | 438 kts | 338° |
| 2026-05-07 11:17 | 53.39260 | 18.84937 | 23975 ft | 438 kts | 338° |
| 2026-05-07 11:17 | 53.42128 | 18.83426 | 23983 ft | 437 kts | 338° |
| 2026-05-07 11:17 | 53.45018 | 18.81901 | 23979 ft | 436 kts | 338° |
| 2026-05-07 11:17 | 53.47918 | 18.80369 | 23977 ft | 436 kts | 338° |
| 2026-05-07 11:18 | 53.50808 | 18.78888 | 23908 ft | 429 kts | 341° |
| 2026-05-07 11:18 | 53.53712 | 18.78139 | 23678 ft | 414 kts | 348° |
| 2026-05-07 11:18 | 53.56556 | 18.77605 | 22972 ft | 410 kts | 350° |
| 2026-05-07 11:18 | 53.59402 | 18.77205 | 22092 ft | 406 kts | 352° |
| 2026-05-07 11:19 | 53.62196 | 18.76886 | 20962 ft | 400 kts | 353° |
| 2026-05-07 11:19 | 53.64953 | 18.76603 | 20022 ft | 391 kts | 353° |
| 2026-05-07 11:19 | 53.67602 | 18.76337 | 19191 ft | 381 kts | 354° |
| 2026-05-07 11:19 | 53.70221 | 18.76065 | 18354 ft | 376 kts | 354° |
| 2026-05-07 11:20 | 53.72832 | 18.75783 | 17433 ft | 372 kts | 354° |
| 2026-05-07 11:20 | 53.75393 | 18.75498 | 16522 ft | 366 kts | 354° |
| 2026-05-07 11:20 | 53.77937 | 18.75322 | 15633 ft | 369 kts | 356° |
| 2026-05-07 11:20 | 53.80495 | 18.75243 | 15088 ft | 363 kts | 356° |
| 2026-05-07 11:21 | 53.82974 | 18.75186 | 14718 ft | 351 kts | 356° |
| 2026-05-07 11:21 | 53.85398 | 18.75131 | 14224 ft | 345 kts | 356° |
| 2026-05-07 11:21 | 53.87787 | 18.75073 | 13694 ft | 341 kts | 356° |
| 2026-05-07 11:21 | 53.90146 | 18.75015 | 13098 ft | 337 kts | 356° |
| 2026-05-07 11:22 | 53.92493 | 18.74956 | 12435 ft | 336 kts | 356° |
| 2026-05-07 11:22 | 53.94786 | 18.74898 | 11858 ft | 332 kts | 356° |
| 2026-05-07 11:22 | 53.97085 | 18.74841 | 11305 ft | 328 kts | 356° |
| 2026-05-07 11:22 | 53.99350 | 18.74785 | 10760 ft | 324 kts | 356° |
| 2026-05-07 11:23 | 54.01568 | 18.74730 | 10503 ft | 311 kts | 357° |
| 2026-05-07 11:23 | 54.03689 | 18.74679 | 10329 ft | 297 kts | 357° |
| 2026-05-07 11:23 | 54.05731 | 18.74629 | 9930 ft | 292 kts | 356° |
| 2026-05-07 11:23 | 54.07752 | 18.74576 | 9405 ft | 290 kts | 356° |
| 2026-05-07 11:24 | 54.09730 | 18.74525 | 8517 ft | 279 kts | 358° |
| 2026-05-07 11:24 | 54.11659 | 18.74476 | 7322 ft | 278 kts | 357° |
| 2026-05-07 11:24 | 54.13636 | 18.74422 | 6408 ft | 290 kts | 358° |
| 2026-05-07 11:24 | 54.15677 | 18.74368 | 5584 ft | 294 kts | 359° |
| 2026-05-07 11:25 | 54.17708 | 18.74316 | 5067 ft | 287 kts | 359° |
| 2026-05-07 11:25 | 54.19664 | 18.74266 | 4734 ft | 274 kts | 360° |
| 2026-05-07 11:25 | 54.21499 | 18.74218 | 4549 ft | 246 kts | 0° |
| 2026-05-07 11:25 | 54.23042 | 18.74175 | 4504 ft | 208 kts | 0° |
| 2026-05-07 11:26 | 54.24464 | 18.74138 | 4486 ft | 197 kts | 0° |
| 2026-05-07 11:26 | 54.25793 | 18.74105 | 4442 ft | 193 kts | 1° |
| 2026-05-07 11:26 | 54.27146 | 18.74074 | 4262 ft | 195 kts | 0° |
| 2026-05-07 11:26 | 54.28494 | 18.74041 | 3997 ft | 193 kts | 0° |
| 2026-05-07 11:27 | 54.29819 | 18.73820 | 3755 ft | 189 kts | 343° |
| 2026-05-07 11:27 | 54.30864 | 18.72500 | 3544 ft | 186 kts | 318° |
| 2026-05-07 11:27 | 54.31666 | 18.70790 | 3319 ft | 184 kts | 308° |
| 2026-05-07 11:27 | 54.32255 | 18.68820 | 3061 ft | 186 kts | 298° |
| 2026-05-07 11:28 | 54.32763 | 18.66787 | 2817 ft | 184 kts | 299° |
| 2026-05-07 11:28 | 54.33266 | 18.64777 | 2567 ft | 183 kts | 298° |
| 2026-05-07 11:28 | 54.33762 | 18.62780 | 2320 ft | 181 kts | 298° |
| 2026-05-07 11:28 | 54.34239 | 18.60848 | 2071 ft | 168 kts | 298° |
| 2026-05-07 11:29 | 54.34678 | 18.59076 | 1859 ft | 161 kts | 299° |
| 2026-05-07 11:29 | 54.35110 | 18.57334 | 1618 ft | 155 kts | 300° |
| 2026-05-07 11:29 | 54.35524 | 18.55664 | 1401 ft | 151 kts | 300° |
| 2026-05-07 11:29 | 54.35929 | 18.54026 | 1178 ft | 148 kts | 298° |
| 2026-05-07 11:30 | 54.36328 | 18.52403 | 951 ft | 147 kts | 297° |
| 2026-05-07 11:30 | 54.36724 | 18.50778 | 744 ft | 148 kts | 297° |
| 2026-05-07 11:30 | 54.37124 | 18.49161 | 559 ft | 147 kts | 298° |
| 2026-05-07 11:30 | 54.37519 | 18.47586 | 470 ft | 135 kts | 297° |
| 2026-05-07 11:31 | 54.37806 | 18.46429 | 464 ft | 77 kts | 292° |
| 2026-05-07 11:31 | 54.37972 | 18.45879 | 465 ft | 36 kts | 312° |
| 2026-05-07 11:31 | 54.38111 | 18.45707 | 464 ft | 16 kts | 353° |
| 2026-05-07 11:31 | 54.38130 | 18.45835 | 464 ft | 14 kts | 112° |
| 2026-05-07 11:32 | 54.38058 | 18.46134 | 469 ft | 15 kts | 113° |
| 2026-05-07 11:32 | 54.38014 | 18.46311 | 469 ft | 17 kts | 112° |
| 2026-05-07 11:32 | 54.37966 | 18.46507 | 469 ft | 18 kts | 114° |
| 2026-05-07 11:33 | 54.37913 | 18.46716 | 469 ft | 20 kts | 112° |
| 2026-05-07 11:33 | 54.37859 | 18.46932 | 466 ft | 19 kts | 112° |
| 2026-05-07 11:33 | 54.37868 | 18.47068 | 469 ft | 9 kts | 23° |
| 2026-05-07 11:33 | 54.37907 | 18.47096 | 469 ft | 2 kts | 23° |
| 2026-05-07 11:34 | 54.37912 | 18.47100 | 469 ft | 0 kts | 23° |